sensor_id;sensor_type;location;lat;lon;timestamp;pressure;altitude;pressure_sealevel;temperature;humidity
70954;BME280;58618;47.490;8.736;2023-03-01T00:01:09;97022.19;;;-0.47;97.52
70954;BME280;58618;47.490;8.736;2023-03-01T00:03:37;97023.78;;;-0.39;97.81
70954;BME280;58618;47.490;8.736;2023-03-01T00:06:05;96994.13;;;-0.46;99.17
70954;BME280;58618;47.490;8.736;2023-03-01T00:08:34;97009.38;;;-0.32;97.24
70954;BME280;58618;47.490;8.736;2023-03-01T00:11:04;97017.94;;;-0.40;97.99
70954;BME280;58618;47.490;8.736;2023-03-01T00:13:33;97024.94;;;-0.42;97.15
70954;BME280;58618;47.490;8.736;2023-03-01T00:16:02;97004.09;;;-0.37;97.72
70954;BME280;58618;47.490;8.736;2023-03-01T00:18:29;97004.69;;;-0.35;97.59
70954;BME280;58618;47.490;8.736;2023-03-01T00:20:56;96992.94;;;-0.50;98.88
70954;BME280;58618;47.490;8.736;2023-03-01T00:23:23;96986.38;;;-0.37;98.42
70954;BME280;58618;47.490;8.736;2023-03-01T00:25:52;96965.50;;;-0.39;98.22
70954;BME280;58618;47.490;8.736;2023-03-01T00:28:20;96993.41;;;-0.33;97.80
70954;BME280;58618;47.490;8.736;2023-03-01T00:30:48;96986.50;;;-0.52;97.95
70954;BME280;58618;47.490;8.736;2023-03-01T00:33:16;97002.38;;;-0.24;98.86
70954;BME280;58618;47.490;8.736;2023-03-01T00:35:43;96991.00;;;-0.48;99.42
70954;BME280;58618;47.490;8.736;2023-03-01T00:38:10;96971.88;;;-0.57;100.00
70954;BME280;58618;47.490;8.736;2023-03-01T00:40:37;97000.34;;;-0.55;100.00
70954;BME280;58618;47.490;8.736;2023-03-01T00:43:06;96992.16;;;-0.57;100.00
70954;BME280;58618;47.490;8.736;2023-03-01T00:45:34;96975.00;;;-0.55;100.00
70954;BME280;58618;47.490;8.736;2023-03-01T00:48:01;96992.22;;;-0.30;100.00
70954;BME280;58618;47.490;8.736;2023-03-01T00:50:29;96989.53;;;-0.22;99.96
70954;BME280;58618;47.490;8.736;2023-03-01T00:52:56;96961.78;;;-0.44;99.21
70954;BME280;58618;47.490;8.736;2023-03-01T00:55:24;96987.91;;;-0.43;98.50
70954;BME280;58618;47.490;8.736;2023-03-01T00:57:51;96968.75;;;-0.52;100.00
70954;BME280;58618;47.490;8.736;2023-03-01T01:00:20;96990.03;;;-0.47;100.00
70954;BME280;58618;47.490;8.736;2023-03-01T01:02:48;96983.66;;;-0.29;100.00
70954;BME280;58618;47.490;8.736;2023-03-01T01:05:15;96957.34;;;-0.22;98.57
70954;BME280;58618;47.490;8.736;2023-03-01T01:07:47;96961.41;;;-0.40;99.58
70954;BME280;58618;47.490;8.736;2023-03-01T01:10:15;96946.53;;;-0.57;100.00
70954;BME280;58618;47.490;8.736;2023-03-01T01:12:44;96974.13;;;-0.14;99.41
70954;BME280;58618;47.490;8.736;2023-03-01T01:15:12;96950.13;;;-0.38;99.89
70954;BME280;58618;47.490;8.736;2023-03-01T01:17:42;96959.84;;;-0.42;100.00
70954;BME280;58618;47.490;8.736;2023-03-01T01:20:11;96957.84;;;-0.53;99.10
70954;BME280;58618;47.490;8.736;2023-03-01T01:22:38;96970.97;;;-0.43;100.00
70954;BME280;58618;47.490;8.736;2023-03-01T01:25:06;96974.66;;;-0.38;100.00
70954;BME280;58618;47.490;8.736;2023-03-01T01:27:34;96954.75;;;-0.55;99.96
70954;BME280;58618;47.490;8.736;2023-03-01T01:30:01;96941.09;;;-0.47;100.00
70954;BME280;58618;47.490;8.736;2023-03-01T01:32:29;96920.22;;;-0.69;100.00
70954;BME280;58618;47.490;8.736;2023-03-01T01:34:58;96949.28;;;-0.52;100.00
70954;BME280;58618;47.490;8.736;2023-03-01T01:37:25;96933.91;;;-0.50;100.00
70954;BME280;58618;47.490;8.736;2023-03-01T01:39:57;96946.41;;;-0.35;100.00
70954;BME280;58618;47.490;8.736;2023-03-01T01:42:25;96897.50;;;-0.43;100.00
70954;BME280;58618;47.490;8.736;2023-03-01T01:45:24;96945.47;;;-0.21;100.00
70954;BME280;58618;47.490;8.736;2023-03-01T01:47:52;96906.00;;;-0.57;99.93
70954;BME280;58618;47.490;8.736;2023-03-01T01:50:23;96938.06;;;-0.16;100.00
70954;BME280;58618;47.490;8.736;2023-03-01T01:52:51;96905.06;;;-0.56;100.00
70954;BME280;58618;47.490;8.736;2023-03-01T01:55:22;96930.63;;;-0.24;100.00
70954;BME280;58618;47.490;8.736;2023-03-01T01:57:53;96922.44;;;-0.39;100.00
70954;BME280;58618;47.490;8.736;2023-03-01T02:00:23;96923.94;;;-0.52;99.98
70954;BME280;58618;47.490;8.736;2023-03-01T02:02:55;96907.63;;;-0.43;100.00
70954;BME280;58618;47.490;8.736;2023-03-01T02:05:29;96918.94;;;-0.38;100.00
70954;BME280;58618;47.490;8.736;2023-03-01T02:07:59;96884.59;;;-0.48;100.00
70954;BME280;58618;47.490;8.736;2023-03-01T02:10:27;96872.72;;;-0.54;99.43
70954;BME280;58618;47.490;8.736;2023-03-01T02:12:55;96905.28;;;-0.24;99.77
70954;BME280;58618;47.490;8.736;2023-03-01T02:15:23;96918.34;;;-0.27;99.39
70954;BME280;58618;47.490;8.736;2023-03-01T02:17:52;96911.34;;;-0.06;98.92
70954;BME280;58618;47.490;8.736;2023-03-01T02:20:26;96918.56;;;-0.03;98.29
70954;BME280;58618;47.490;8.736;2023-03-01T02:22:57;96888.13;;;-0.35;98.61
70954;BME280;58618;47.490;8.736;2023-03-01T02:25:32;96906.06;;;-0.17;97.28
70954;BME280;58618;47.490;8.736;2023-03-01T02:28:06;96886.75;;;-0.25;96.27
70954;BME280;58618;47.490;8.736;2023-03-01T02:30:37;96892.81;;;-0.19;95.91
70954;BME280;58618;47.490;8.736;2023-03-01T02:33:26;96898.28;;;-0.09;94.75
70954;BME280;58618;47.490;8.736;2023-03-01T02:35:54;96891.63;;;-0.10;95.34
70954;BME280;58618;47.490;8.736;2023-03-01T02:38:22;96864.91;;;-0.26;94.92
70954;BME280;58618;47.490;8.736;2023-03-01T02:40:51;96865.91;;;-0.20;94.43
70954;BME280;58618;47.490;8.736;2023-03-01T02:43:19;96858.09;;;-0.25;93.49
70954;BME280;58618;47.490;8.736;2023-03-01T02:45:51;96852.84;;;-0.30;93.67
70954;BME280;58618;47.490;8.736;2023-03-01T02:48:19;96888.13;;;-0.09;93.51
70954;BME280;58618;47.490;8.736;2023-03-01T02:50:55;96868.63;;;-0.15;93.16
70954;BME280;58618;47.490;8.736;2023-03-01T02:53:36;96886.56;;;-0.10;93.67
70954;BME280;58618;47.490;8.736;2023-03-01T02:56:06;96865.13;;;-0.14;92.78
70954;BME280;58618;47.490;8.736;2023-03-01T02:58:39;96858.47;;;-0.15;92.71
70954;BME280;58618;47.490;8.736;2023-03-01T03:01:13;96837.44;;;-0.22;92.16
70954;BME280;58618;47.490;8.736;2023-03-01T03:03:42;96854.19;;;-0.08;92.24
70954;BME280;58618;47.490;8.736;2023-03-01T03:06:09;96830.03;;;-0.24;92.91
70954;BME280;58618;47.490;8.736;2023-03-01T03:08:37;96840.94;;;-0.10;93.21
70954;BME280;58618;47.490;8.736;2023-03-01T03:11:05;96861.63;;;0.00;92.71
70954;BME280;58618;47.490;8.736;2023-03-01T03:13:32;96867.06;;;-0.03;93.28
70954;BME280;58618;47.490;8.736;2023-03-01T03:16:02;96820.28;;;-0.33;93.15
70954;BME280;58618;47.490;8.736;2023-03-01T03:18:31;96853.78;;;-0.05;93.54
70954;BME280;58618;47.490;8.736;2023-03-01T03:20:58;96861.22;;;0.03;93.26
70954;BME280;58618;47.490;8.736;2023-03-01T03:23:25;96841.94;;;-0.11;93.78
70954;BME280;58618;47.490;8.736;2023-03-01T03:25:53;96853.63;;;0.03;93.92
70954;BME280;58618;47.490;8.736;2023-03-01T03:28:20;96843.09;;;-0.07;94.10
70954;BME280;58618;47.490;8.736;2023-03-01T03:30:48;96849.91;;;-0.01;94.80
70954;BME280;58618;47.490;8.736;2023-03-01T03:33:15;96838.81;;;-0.13;93.85
70954;BME280;58618;47.490;8.736;2023-03-01T03:35:46;96835.88;;;-0.23;93.93
70954;BME280;58618;47.490;8.736;2023-03-01T03:38:15;96832.94;;;-0.20;94.31
70954;BME280;58618;47.490;8.736;2023-03-01T03:40:45;96839.38;;;-0.24;94.02
70954;BME280;58618;47.490;8.736;2023-03-01T03:43:15;96861.03;;;-0.02;94.35
70954;BME280;58618;47.490;8.736;2023-03-01T03:45:43;96835.47;;;-0.20;95.04
70954;BME280;58618;47.490;8.736;2023-03-01T03:48:11;96845.81;;;-0.02;94.99
70954;BME280;58618;47.490;8.736;2023-03-01T03:50:39;96864.34;;;0.05;94.12
70954;BME280;58618;47.490;8.736;2023-03-01T03:53:11;96847.19;;;-0.06;94.16
70954;BME280;58618;47.490;8.736;2023-03-01T03:55:39;96853.03;;;0.01;94.38
70954;BME280;58618;47.490;8.736;2023-03-01T03:58:08;96856.53;;;0.07;93.31
70954;BME280;58618;47.490;8.736;2023-03-01T04:00:37;96845.59;;;0.06;94.07
70954;BME280;58618;47.490;8.736;2023-03-01T04:03:04;96841.53;;;0.05;94.15
70954;BME280;58618;47.490;8.736;2023-03-01T04:05:32;96819.13;;;-0.11;93.92
70954;BME280;58618;47.490;8.736;2023-03-01T04:08:00;96826.13;;;-0.07;94.27
70954;BME280;58618;47.490;8.736;2023-03-01T04:10:35;96830.59;;;-0.02;94.29
70954;BME280;58618;47.490;8.736;2023-03-01T04:13:03;96839.75;;;0.06;93.95
70954;BME280;58618;47.490;8.736;2023-03-01T04:15:31;96816.38;;;-0.03;93.71
70954;BME280;58618;47.490;8.736;2023-03-01T04:17:59;96835.25;;;0.14;94.34
70954;BME280;58618;47.490;8.736;2023-03-01T04:20:28;96800.38;;;-0.10;94.36
70954;BME280;58618;47.490;8.736;2023-03-01T04:23:00;96837.22;;;0.12;94.48
70954;BME280;58618;47.490;8.736;2023-03-01T04:25:39;96843.63;;;0.21;94.23
70954;BME280;58618;47.490;8.736;2023-03-01T04:28:07;96823.38;;;0.08;94.16
70954;BME280;58618;47.490;8.736;2023-03-01T04:30:35;96821.81;;;0.07;95.09
70954;BME280;58618;47.490;8.736;2023-03-01T04:33:03;96817.72;;;0.06;94.35
70954;BME280;58618;47.490;8.736;2023-03-01T04:35:31;96826.50;;;0.10;94.42
70954;BME280;58618;47.490;8.736;2023-03-01T04:37:58;96814.00;;;0.02;94.29
70954;BME280;58618;47.490;8.736;2023-03-01T04:40:26;96817.88;;;0.11;94.59
70954;BME280;58618;47.490;8.736;2023-03-01T04:42:54;96828.63;;;0.13;94.69
70954;BME280;58618;47.490;8.736;2023-03-01T04:45:22;96830.56;;;0.24;94.65
70954;BME280;58618;47.490;8.736;2023-03-01T04:47:49;96796.44;;;0.00;94.89
70954;BME280;58618;47.490;8.736;2023-03-01T04:50:18;96831.94;;;0.20;94.49
70954;BME280;58618;47.490;8.736;2023-03-01T04:52:48;96833.69;;;0.26;95.54
70954;BME280;58618;47.490;8.736;2023-03-01T04:55:15;96828.00;;;0.31;95.00
70954;BME280;58618;47.490;8.736;2023-03-01T04:57:43;96827.00;;;0.38;94.26
70954;BME280;58618;47.490;8.736;2023-03-01T05:00:13;96798.38;;;0.18;94.64
70954;BME280;58618;47.490;8.736;2023-03-01T05:02:50;96820.16;;;0.39;93.76
70954;BME280;58618;47.490;8.736;2023-03-01T05:05:21;96791.75;;;0.17;94.28
70954;BME280;58618;47.490;8.736;2023-03-01T05:07:52;96812.38;;;0.27;94.48
70954;BME280;58618;47.490;8.736;2023-03-01T05:10:20;96809.28;;;0.25;94.08
70954;BME280;58618;47.490;8.736;2023-03-01T05:12:48;96824.69;;;0.37;94.39
70954;BME280;58618;47.490;8.736;2023-03-01T05:15:17;96801.28;;;0.28;94.57
70954;BME280;58618;47.490;8.736;2023-03-01T05:17:44;96817.44;;;0.40;94.91
70954;BME280;58618;47.490;8.736;2023-03-01T05:20:21;96792.50;;;0.24;94.78
70954;BME280;58618;47.490;8.736;2023-03-01T05:22:50;96802.03;;;0.35;94.62
70954;BME280;58618;47.490;8.736;2023-03-01T05:25:17;96813.50;;;0.45;94.22
70954;BME280;58618;47.490;8.736;2023-03-01T05:27:45;96818.59;;;0.45;93.85
70954;BME280;58618;47.490;8.736;2023-03-01T05:30:13;96808.44;;;0.45;93.97
70954;BME280;58618;47.490;8.736;2023-03-01T05:32:43;96785.09;;;0.23;94.44
70954;BME280;58618;47.490;8.736;2023-03-01T05:35:11;96808.25;;;0.39;95.38
70954;BME280;58618;47.490;8.736;2023-03-01T05:37:41;96796.78;;;0.30;94.75
70954;BME280;58618;47.490;8.736;2023-03-01T05:40:10;96764.47;;;0.06;95.34
70954;BME280;58618;47.490;8.736;2023-03-01T05:42:43;96798.75;;;0.28;95.45
70954;BME280;58618;47.490;8.736;2023-03-01T05:45:11;96784.31;;;0.22;95.21
70954;BME280;58618;47.490;8.736;2023-03-01T05:47:42;96793.84;;;0.33;94.90
70954;BME280;58618;47.490;8.736;2023-03-01T05:50:12;96792.88;;;0.34;94.45
70954;BME280;58618;47.490;8.736;2023-03-01T05:52:40;96749.59;;;0.16;94.49
70954;BME280;58618;47.490;8.736;2023-03-01T05:55:08;96788.94;;;0.38;94.18
70954;BME280;58618;47.490;8.736;2023-03-01T05:57:35;96765.19;;;0.26;94.10
70954;BME280;58618;47.490;8.736;2023-03-01T06:00:03;96782.31;;;0.37;94.93
70954;BME280;58618;47.490;8.736;2023-03-01T06:02:32;96775.53;;;0.31;94.40
70954;BME280;58618;47.490;8.736;2023-03-01T06:05:01;96768.66;;;0.32;94.50
70954;BME280;58618;47.490;8.736;2023-03-01T06:07:29;96785.00;;;0.42;95.30
70954;BME280;58618;47.490;8.736;2023-03-01T06:09:57;96762.84;;;0.25;93.29
70954;BME280;58618;47.490;8.736;2023-03-01T06:12:24;96758.94;;;0.29;94.31
70954;BME280;58618;47.490;8.736;2023-03-01T06:14:51;96769.06;;;0.35;94.48
70954;BME280;58618;47.490;8.736;2023-03-01T06:17:19;96765.94;;;0.33;94.37
70954;BME280;58618;47.490;8.736;2023-03-01T06:19:46;96766.28;;;0.43;94.32
70954;BME280;58618;47.490;8.736;2023-03-01T06:22:14;96773.16;;;0.36;94.99
70954;BME280;58618;47.490;8.736;2023-03-01T06:24:42;96766.13;;;0.38;95.13
70954;BME280;58618;47.490;8.736;2023-03-01T06:27:10;96776.06;;;0.40;95.36
70954;BME280;58618;47.490;8.736;2023-03-01T06:29:37;96761.47;;;0.29;95.17
70954;BME280;58618;47.490;8.736;2023-03-01T06:32:05;96771.34;;;0.43;95.56
70954;BME280;58618;47.490;8.736;2023-03-01T06:34:34;96775.47;;;0.45;95.72
70954;BME280;58618;47.490;8.736;2023-03-01T06:37:01;96734.78;;;0.13;95.54
70954;BME280;58618;47.490;8.736;2023-03-01T06:39:33;96760.13;;;0.26;96.00
70954;BME280;58618;47.490;8.736;2023-03-01T06:42:00;96767.91;;;0.31;96.13
70954;BME280;58618;47.490;8.736;2023-03-01T06:44:28;96768.88;;;0.30;96.38
70954;BME280;58618;47.490;8.736;2023-03-01T06:46:56;96783.84;;;0.45;95.25
70954;BME280;58618;47.490;8.736;2023-03-01T06:49:23;96767.50;;;0.34;95.59
70954;BME280;58618;47.490;8.736;2023-03-01T06:51:51;96776.66;;;0.42;95.32
70954;BME280;58618;47.490;8.736;2023-03-01T06:54:18;96774.69;;;0.37;95.76
70954;BME280;58618;47.490;8.736;2023-03-01T06:56:50;96745.50;;;0.22;95.56
70954;BME280;58618;47.490;8.736;2023-03-01T06:59:18;96731.28;;;0.14;95.47
70954;BME280;58618;47.490;8.736;2023-03-01T07:01:45;96754.47;;;0.24;95.46
70954;BME280;58618;47.490;8.736;2023-03-01T07:04:41;96726.81;;;0.10;96.05
70954;BME280;58618;47.490;8.736;2023-03-01T07:07:50;96736.38;;;0.14;96.62
70954;BME280;58618;47.490;8.736;2023-03-01T07:10:31;96764.00;;;0.29;95.68
70954;BME280;58618;47.490;8.736;2023-03-01T07:13:00;96739.47;;;0.16;95.71
70954;BME280;58618;47.490;8.736;2023-03-01T07:15:27;96745.72;;;0.20;95.90
70954;BME280;58618;47.490;8.736;2023-03-01T07:17:56;96760.09;;;0.33;95.96
70954;BME280;58618;47.490;8.736;2023-03-01T07:20:24;96784.22;;;0.49;95.36
70954;BME280;58618;47.490;8.736;2023-03-01T07:22:51;96759.72;;;0.23;95.39
70954;BME280;58618;47.490;8.736;2023-03-01T07:25:18;96784.03;;;0.50;95.14
70954;BME280;58618;47.490;8.736;2023-03-01T07:27:49;96748.56;;;0.37;95.58
70954;BME280;58618;47.490;8.736;2023-03-01T07:30:18;96775.63;;;0.50;95.54
70954;BME280;58618;47.490;8.736;2023-03-01T07:32:45;96749.75;;;0.34;95.48
70954;BME280;58618;47.490;8.736;2023-03-01T07:35:12;96776.41;;;0.50;95.87
70954;BME280;58618;47.490;8.736;2023-03-01T07:37:40;96764.00;;;0.35;95.24
70954;BME280;58618;47.490;8.736;2023-03-01T07:40:09;96762.06;;;0.31;95.97
70954;BME280;58618;47.490;8.736;2023-03-01T07:42:36;96754.22;;;0.32;95.29
70954;BME280;58618;47.490;8.736;2023-03-01T07:45:05;96747.97;;;0.35;95.84
70954;BME280;58618;47.490;8.736;2023-03-01T07:47:34;96776.78;;;0.54;95.54
70954;BME280;58618;47.490;8.736;2023-03-01T07:50:02;96765.50;;;0.43;95.38
70954;BME280;58618;47.490;8.736;2023-03-01T07:52:30;96750.72;;;0.33;95.66
70954;BME280;58618;47.490;8.736;2023-03-01T07:54:57;96744.84;;;0.39;95.62
70954;BME280;58618;47.490;8.736;2023-03-01T07:57:25;96760.41;;;0.50;95.49
70954;BME280;58618;47.490;8.736;2023-03-01T07:59:52;96769.75;;;0.56;95.64
70954;BME280;58618;47.490;8.736;2023-03-01T08:02:19;96754.56;;;0.49;96.15
70954;BME280;58618;47.490;8.736;2023-03-01T08:04:48;96753.41;;;0.45;95.66
70954;BME280;58618;47.490;8.736;2023-03-01T08:07:15;96768.56;;;0.58;95.34
70954;BME280;58618;47.490;8.736;2023-03-01T08:09:43;96751.03;;;0.50;95.35
70954;BME280;58618;47.490;8.736;2023-03-01T08:12:10;96769.50;;;0.64;95.43
70954;BME280;58618;47.490;8.736;2023-03-01T08:14:38;96765.25;;;0.58;95.42
70954;BME280;58618;47.490;8.736;2023-03-01T08:17:05;96770.09;;;0.66;95.05
70954;BME280;58618;47.490;8.736;2023-03-01T08:19:32;96738.16;;;0.52;95.17
70954;BME280;58618;47.490;8.736;2023-03-01T08:22:02;96731.53;;;0.51;95.12
70954;BME280;58618;47.490;8.736;2023-03-01T08:24:29;96722.75;;;0.47;94.73
70954;BME280;58618;47.490;8.736;2023-03-01T08:26:57;96704.63;;;0.43;94.53
70954;BME280;58618;47.490;8.736;2023-03-01T08:29:24;96754.81;;;0.79;94.76
70954;BME280;58618;47.490;8.736;2023-03-01T08:31:52;96752.00;;;0.87;94.04
70954;BME280;58618;47.490;8.736;2023-03-01T08:34:19;96756.66;;;0.90;93.19
70954;BME280;58618;47.490;8.736;2023-03-01T08:36:47;96745.81;;;0.76;94.32
70954;BME280;58618;47.490;8.736;2023-03-01T08:39:18;96741.94;;;0.74;94.24
70954;BME280;58618;47.490;8.736;2023-03-01T08:41:46;96728.69;;;0.65;94.60
70954;BME280;58618;47.490;8.736;2023-03-01T08:44:15;96704.03;;;0.48;94.37
70954;BME280;58618;47.490;8.736;2023-03-01T08:46:44;96713.16;;;0.55;94.70
70954;BME280;58618;47.490;8.736;2023-03-01T08:49:13;96722.16;;;0.51;94.44
70954;BME280;58618;47.490;8.736;2023-03-01T08:51:41;96715.50;;;0.57;94.65
70954;BME280;58618;47.490;8.736;2023-03-01T08:54:11;96723.09;;;0.57;94.11
70954;BME280;58618;47.490;8.736;2023-03-01T08:56:40;96739.22;;;0.69;94.72
70954;BME280;58618;47.490;8.736;2023-03-01T08:59:09;96751.69;;;0.77;94.79
70954;BME280;58618;47.490;8.736;2023-03-01T09:01:36;96757.50;;;0.84;94.63
70954;BME280;58618;47.490;8.736;2023-03-01T09:04:04;96755.00;;;0.77;94.70
70954;BME280;58618;47.490;8.736;2023-03-01T09:06:31;96751.69;;;0.77;94.97
70954;BME280;58618;47.490;8.736;2023-03-01T09:09:00;96737.59;;;0.81;94.23
70954;BME280;58618;47.490;8.736;2023-03-01T09:11:28;96730.47;;;0.65;94.31
70954;BME280;58618;47.490;8.736;2023-03-01T09:13:57;96716.38;;;0.69;94.21
70954;BME280;58618;47.490;8.736;2023-03-01T09:16:25;96738.56;;;0.80;94.40
70954;BME280;58618;47.490;8.736;2023-03-01T09:18:53;96706.81;;;0.71;93.72
70954;BME280;58618;47.490;8.736;2023-03-01T09:21:22;96729.31;;;0.92;94.54
70954;BME280;58618;47.490;8.736;2023-03-01T09:23:50;96730.06;;;0.99;93.87
70954;BME280;58618;47.490;8.736;2023-03-01T09:26:19;96732.75;;;1.04;93.09
70954;BME280;58618;47.490;8.736;2023-03-01T09:28:49;96737.09;;;0.97;94.13
70954;BME280;58618;47.490;8.736;2023-03-01T09:31:20;96723.16;;;0.81;93.94
70954;BME280;58618;47.490;8.736;2023-03-01T09:33:50;96730.88;;;0.93;93.76
70954;BME280;58618;47.490;8.736;2023-03-01T09:36:19;96713.78;;;0.82;93.44
70954;BME280;58618;47.490;8.736;2023-03-01T09:38:48;96707.56;;;0.78;94.05
70954;BME280;58618;47.490;8.736;2023-03-01T09:41:26;96718.50;;;0.78;93.94
70954;BME280;58618;47.490;8.736;2023-03-01T09:44:01;96715.31;;;0.83;93.57
70954;BME280;58618;47.490;8.736;2023-03-01T09:46:37;96718.09;;;1.06;92.42
70954;BME280;58618;47.490;8.736;2023-03-01T09:49:12;96725.00;;;0.99;92.57
70954;BME280;58618;47.490;8.736;2023-03-01T09:51:54;96705.06;;;0.96;93.04
70954;BME280;58618;47.490;8.736;2023-03-01T09:54:22;96695.22;;;1.06;91.71
70954;BME280;58618;47.490;8.736;2023-03-01T09:56:59;96728.78;;;1.15;92.64
70954;BME280;58618;47.490;8.736;2023-03-01T09:59:36;96689.13;;;0.89;92.73
70954;BME280;58618;47.490;8.736;2023-03-01T10:05:19;96681.75;;;0.81;93.00
70954;BME280;58618;47.490;8.736;2023-03-01T10:07:56;96691.00;;;1.00;92.50
70954;BME280;58618;47.490;8.736;2023-03-01T10:10:33;96690.47;;;0.92;91.92
70954;BME280;58618;47.490;8.736;2023-03-01T10:13:05;96720.03;;;1.11;91.97
70954;BME280;58618;47.490;8.736;2023-03-01T10:15:41;96703.69;;;1.00;92.42
70954;BME280;58618;47.490;8.736;2023-03-01T10:18:14;96713.69;;;1.20;91.64
70954;BME280;58618;47.490;8.736;2023-03-01T10:20:47;96711.63;;;1.10;92.20
70954;BME280;58618;47.490;8.736;2023-03-01T10:23:17;96684.34;;;0.99;92.25
70954;BME280;58618;47.490;8.736;2023-03-01T10:25:55;96705.75;;;1.10;91.96
70954;BME280;58618;47.490;8.736;2023-03-01T10:28:26;96705.69;;;1.16;91.97
70954;BME280;58618;47.490;8.736;2023-03-01T10:30:57;96678.38;;;1.12;91.94
70954;BME280;58618;47.490;8.736;2023-03-01T10:33:29;96687.66;;;1.24;92.22
70954;BME280;58618;47.490;8.736;2023-03-01T10:35:58;96695.34;;;1.18;92.13
70954;BME280;58618;47.490;8.736;2023-03-01T10:38:25;96685.81;;;1.13;91.20
70954;BME280;58618;47.490;8.736;2023-03-01T10:40:55;96676.06;;;1.10;91.83
70954;BME280;58618;47.490;8.736;2023-03-01T10:43:24;96642.22;;;0.92;91.45
70954;BME280;58618;47.490;8.736;2023-03-01T10:45:52;96687.97;;;1.35;90.87
70954;BME280;58618;47.490;8.736;2023-03-01T10:48:22;96686.94;;;1.42;90.70
70954;BME280;58618;47.490;8.736;2023-03-01T10:51:06;96687.53;;;1.38;89.99
70954;BME280;58618;47.490;8.736;2023-03-01T10:53:35;96673.16;;;1.32;90.57
70954;BME280;58618;47.490;8.736;2023-03-01T10:56:06;96679.66;;;1.46;89.94
70954;BME280;58618;47.490;8.736;2023-03-01T10:58:35;96664.66;;;1.38;89.77
70954;BME280;58618;47.490;8.736;2023-03-01T11:01:04;96670.81;;;1.30;89.64
70954;BME280;58618;47.490;8.736;2023-03-01T11:03:33;96700.50;;;1.30;90.27
70954;BME280;58618;47.490;8.736;2023-03-01T11:06:20;96691.97;;;1.24;90.16
70954;BME280;58618;47.490;8.736;2023-03-01T11:08:50;96688.41;;;1.32;90.09
70954;BME280;58618;47.490;8.736;2023-03-01T11:11:33;96698.56;;;1.32;89.14
70954;BME280;58618;47.490;8.736;2023-03-01T11:14:06;96656.56;;;1.04;89.54
70954;BME280;58618;47.490;8.736;2023-03-01T11:16:35;96688.75;;;1.35;89.12
70954;BME280;58618;47.490;8.736;2023-03-01T11:19:15;96687.22;;;1.27;89.81
70954;BME280;58618;47.490;8.736;2023-03-01T11:21:50;96694.69;;;1.22;89.70
70954;BME280;58618;47.490;8.736;2023-03-01T11:24:25;96671.22;;;1.02;89.37
70954;BME280;58618;47.490;8.736;2023-03-01T11:26:54;96692.47;;;1.33;89.82
70954;BME280;58618;47.490;8.736;2023-03-01T11:29:29;96689.38;;;1.31;89.93
70954;BME280;58618;47.490;8.736;2023-03-01T11:32:02;96666.13;;;1.27;89.91
70954;BME280;58618;47.490;8.736;2023-03-01T11:34:40;96658.59;;;1.20;89.90
70954;BME280;58618;47.490;8.736;2023-03-01T11:37:20;96665.78;;;1.23;89.42
70954;BME280;58618;47.490;8.736;2023-03-01T11:40:03;96673.50;;;1.35;89.63
70954;BME280;58618;47.490;8.736;2023-03-01T11:42:46;96663.38;;;1.28;89.57
70954;BME280;58618;47.490;8.736;2023-03-01T11:45:15;96657.81;;;1.38;89.82
70954;BME280;58618;47.490;8.736;2023-03-01T11:48:09;96661.72;;;1.41;89.15
70954;BME280;58618;47.490;8.736;2023-03-01T11:50:42;96655.50;;;1.37;89.30
70954;BME280;58618;47.490;8.736;2023-03-01T11:56:19;96658.97;;;1.42;89.31
70954;BME280;58618;47.490;8.736;2023-03-01T12:01:59;96654.63;;;1.24;88.50
70954;BME280;58618;47.490;8.736;2023-03-01T12:04:58;96654.78;;;1.30;89.22
70954;BME280;58618;47.490;8.736;2023-03-01T12:07:37;96653.91;;;1.42;89.12
70954;BME280;58618;47.490;8.736;2023-03-01T12:10:20;96624.53;;;1.46;88.11
70954;BME280;58618;47.490;8.736;2023-03-01T12:12:58;96620.63;;;1.25;88.26
70954;BME280;58618;47.490;8.736;2023-03-01T12:15:51;96641.34;;;1.47;88.69
70954;BME280;58618;47.490;8.736;2023-03-01T12:18:45;96641.25;;;1.54;88.25
70954;BME280;58618;47.490;8.736;2023-03-01T12:21:27;96582.00;;;1.17;88.46
70954;BME280;58618;47.490;8.736;2023-03-01T12:26:55;96620.78;;;1.67;88.00
70954;BME280;58618;47.490;8.736;2023-03-01T12:29:39;96605.53;;;1.67;87.08
70954;BME280;58618;47.490;8.736;2023-03-01T12:32:16;96614.97;;;1.60;87.61
70954;BME280;58618;47.490;8.736;2023-03-01T12:34:59;96587.59;;;1.25;87.97
70954;BME280;58618;47.490;8.736;2023-03-01T12:37:39;96624.88;;;1.50;87.99
70954;BME280;58618;47.490;8.736;2023-03-01T12:40:53;96615.53;;;1.44;88.22
70954;BME280;58618;47.490;8.736;2023-03-01T12:43:44;96606.22;;;1.38;87.52
70954;BME280;58618;47.490;8.736;2023-03-01T12:46:31;96603.06;;;1.42;87.54
70954;BME280;58618;47.490;8.736;2023-03-01T12:49:08;96613.00;;;1.44;86.90
70954;BME280;58618;47.490;8.736;2023-03-01T12:51:38;96614.69;;;1.50;87.12
70954;BME280;58618;47.490;8.736;2023-03-01T12:54:14;96609.91;;;1.60;86.30
70954;BME280;58618;47.490;8.736;2023-03-01T12:56:42;96622.91;;;1.52;86.65
70954;BME280;58618;47.490;8.736;2023-03-01T12:59:24;96615.81;;;1.54;87.17
70954;BME280;58618;47.490;8.736;2023-03-01T13:02:02;96620.91;;;1.54;87.13
70954;BME280;58618;47.490;8.736;2023-03-01T13:04:37;96614.69;;;1.50;87.32
70954;BME280;58618;47.490;8.736;2023-03-01T13:07:16;96614.69;;;1.50;86.96
70954;BME280;58618;47.490;8.736;2023-03-01T13:09:51;96616.84;;;1.53;86.89
70954;BME280;58618;47.490;8.736;2023-03-01T13:12:50;96615.41;;;1.57;87.32
70954;BME280;58618;47.490;8.736;2023-03-01T13:15:27;96580.81;;;1.19;87.26
70954;BME280;58618;47.490;8.736;2023-03-01T13:17:56;96593.81;;;1.30;86.90
70954;BME280;58618;47.490;8.736;2023-03-01T13:20:27;96589.78;;;1.40;87.34
70954;BME280;58618;47.490;8.736;2023-03-01T13:23:05;96599.03;;;1.53;86.95
70954;BME280;58618;47.490;8.736;2023-03-01T13:25:33;96613.03;;;1.62;86.56
70954;BME280;58618;47.490;8.736;2023-03-01T13:28:42;96613.44;;;1.59;86.77
70954;BME280;58618;47.490;8.736;2023-03-01T13:34:54;96589.22;;;1.56;86.39
70954;BME280;58618;47.490;8.736;2023-03-01T13:37:24;96590.69;;;1.64;85.44
70954;BME280;58618;47.490;8.736;2023-03-01T13:39:57;96614.31;;;1.53;85.56
70954;BME280;58618;47.490;8.736;2023-03-01T13:42:42;96611.91;;;1.58;85.79
70954;BME280;58618;47.490;8.736;2023-03-01T13:45:24;96619.88;;;1.80;84.70